createdAt,value
2023-02-14T00:00:29.454Z,98671.94
2023-02-14T00:02:57.071Z,98680.22
2023-02-14T00:05:23.990Z,98673.16
2023-02-14T00:07:50.610Z,98672.88
2023-02-14T00:10:17.484Z,98676.09
2023-02-14T00:12:43.873Z,98677.22
2023-02-14T00:15:22.907Z,98674.50
2023-02-14T00:17:51.591Z,98669.09
2023-02-14T00:20:18.485Z,98672.72
2023-02-14T00:22:44.819Z,98670.78
2023-02-14T00:25:11.277Z,98675.16
2023-02-14T00:27:38.021Z,98680.47
2023-02-14T00:30:06.776Z,98682.31
2023-02-14T00:32:37.016Z,98676.59
2023-02-14T00:35:03.549Z,98672.31
2023-02-14T00:37:29.962Z,98684.97
2023-02-14T00:39:56.453Z,98678.91
2023-02-14T00:42:23.822Z,98681.66
2023-02-14T00:44:50.210Z,98681.09
2023-02-14T00:47:16.746Z,98678.38
2023-02-14T00:49:43.149Z,98675.72
2023-02-14T00:52:09.557Z,98680.78
2023-02-14T00:54:35.997Z,98676.28
2023-02-14T00:57:02.338Z,98683.00
2023-02-14T00:59:28.779Z,98679.03
2023-02-14T01:01:55.316Z,98678.72
2023-02-14T01:04:21.927Z,98682.22
2023-02-14T01:06:48.341Z,98692.91
2023-02-14T01:09:14.851Z,98693.47
2023-02-14T01:11:41.951Z,98696.41
2023-02-14T01:14:08.406Z,98700.91
2023-02-14T01:16:36.538Z,98681.44
2023-02-14T01:19:03.264Z,98689.47
2023-02-14T01:21:34.046Z,98685.63
2023-02-14T01:24:04.643Z,98690.47
2023-02-14T01:26:31.601Z,98689.38
2023-02-14T01:28:58.275Z,98682.22
2023-02-14T01:31:27.916Z,98684.06
2023-02-14T01:33:54.854Z,98690.78
2023-02-14T01:36:23.101Z,98677.69
2023-02-14T01:38:55.501Z,98677.97
2023-02-14T01:41:22.869Z,98677.91
2023-02-14T01:44:03.098Z,98672.72
2023-02-14T01:46:32.744Z,98674.06
2023-02-14T01:49:04.040Z,98680.66
2023-02-14T01:51:31.079Z,98684.66
2023-02-14T01:53:58.822Z,98681.56
2023-02-14T01:56:34.057Z,98670.44
2023-02-14T01:59:02.776Z,98691.34
2023-02-14T02:01:30.201Z,98675.09
2023-02-14T02:04:07.165Z,98686.00
2023-02-14T02:06:38.264Z,98680.94
2023-02-14T02:09:13.012Z,98674.66
2023-02-14T02:11:40.970Z,98664.66
2023-02-14T02:14:14.329Z,98662.25
2023-02-14T02:17:28.919Z,98670.50
2023-02-14T02:20:16.595Z,98658.94
2023-02-14T02:23:13.680Z,98654.19
2023-02-14T02:26:07.325Z,98648.56
2023-02-14T02:29:11.576Z,98643.81
2023-02-14T02:31:48.447Z,98641.56
2023-02-14T02:34:47.012Z,98648.56
2023-02-14T02:37:28.962Z,98652.31
2023-02-14T02:40:07.483Z,98663.13
2023-02-14T02:42:58.346Z,98656.72
2023-02-14T02:46:04.532Z,98659.16
2023-02-14T02:49:03.513Z,98668.94
2023-02-14T02:51:58.129Z,98664.78
2023-02-14T02:54:53.722Z,98663.25
2023-02-14T02:57:27.063Z,98667.19
2023-02-14T02:59:56.320Z,98666.44
2023-02-14T03:02:28.296Z,98664.19
2023-02-14T03:04:57.827Z,98659.38
2023-02-14T03:07:35.981Z,98652.75
2023-02-14T03:10:07.791Z,98650.59
2023-02-14T03:12:34.124Z,98655.91
2023-02-14T03:15:09.901Z,98655.00
2023-02-14T03:17:37.573Z,98646.38
2023-02-14T03:20:24.129Z,98646.72
2023-02-14T03:23:29.673Z,98654.19
2023-02-14T03:26:14.974Z,98650.25
2023-02-14T03:28:50.375Z,98651.72
2023-02-14T03:31:27.270Z,98652.03
2023-02-14T03:34:04.207Z,98642.72
2023-02-14T03:36:50.360Z,98640.00
2023-02-14T03:39:39.796Z,98643.09
2023-02-14T03:42:23.618Z,98647.78
2023-02-14T03:44:53.337Z,98648.34
2023-02-14T03:47:25.229Z,98641.13
2023-02-14T03:50:02.078Z,98654.09
2023-02-14T03:52:30.989Z,98662.22
2023-02-14T03:55:00.053Z,98653.09
2023-02-14T03:57:32.219Z,98661.22
2023-02-14T03:59:59.458Z,98655.28
2023-02-14T04:02:36.552Z,98662.75
2023-02-14T04:05:05.357Z,98658.28
2023-02-14T04:07:31.905Z,98657.28
2023-02-14T04:09:58.348Z,98666.16
2023-02-14T04:12:37.277Z,98661.75
2023-02-14T04:15:05.619Z,98658.16
2023-02-14T04:17:50.722Z,98654.28
2023-02-14T04:20:17.217Z,98660.03
2023-02-14T04:22:43.585Z,98658.78
2023-02-14T04:25:10.013Z,98650.22
2023-02-14T04:27:36.384Z,98645.53
2023-02-14T04:30:03.981Z,98655.94
2023-02-14T04:32:30.413Z,98648.94
2023-02-14T04:34:57.009Z,98647.75
2023-02-14T04:37:23.557Z,98648.97
2023-02-14T04:39:49.931Z,98648.97
2023-02-14T04:42:16.534Z,98639.72
2023-02-14T04:44:42.881Z,98639.72
2023-02-14T04:47:09.791Z,98637.31
2023-02-14T04:49:36.298Z,98632.34
2023-02-14T04:52:04.185Z,98629.16
2023-02-14T04:54:31.223Z,98635.22
2023-02-14T04:56:57.934Z,98633.13
2023-02-14T04:59:25.954Z,98635.63
2023-02-14T05:01:53.058Z,98632.16
2023-02-14T05:04:19.732Z,98633.03
2023-02-14T05:06:46.451Z,98636.44
2023-02-14T05:09:12.882Z,98626.00
2023-02-14T05:11:39.333Z,98624.47
2023-02-14T05:14:05.800Z,98621.81
2023-02-14T05:16:32.252Z,98619.88
2023-02-14T05:18:58.710Z,98627.56
2023-02-14T05:21:25.382Z,98623.16
2023-02-14T05:23:51.769Z,98625.34
2023-02-14T05:26:18.410Z,98630.41
2023-02-14T05:28:44.811Z,98621.97
2023-02-14T05:31:11.394Z,98618.38
2023-02-14T05:33:37.904Z,98627.03
2023-02-14T05:36:04.766Z,98633.06
2023-02-14T05:38:33.443Z,98632.06
2023-02-14T05:41:00.311Z,98626.25
2023-02-14T05:43:27.267Z,98635.47
2023-02-14T05:45:54.607Z,98632.06
2023-02-14T05:48:21.306Z,98637.13
2023-02-14T05:50:48.103Z,98632.94
2023-02-14T05:53:15.264Z,98638.13
2023-02-14T05:55:41.907Z,98648.09
2023-02-14T05:58:08.281Z,98644.50
2023-02-14T06:00:34.958Z,98646.06
2023-02-14T06:03:01.433Z,98645.72
2023-02-14T06:05:27.956Z,98640.56
2023-02-14T06:07:54.512Z,98645.50
2023-02-14T06:10:23.100Z,98646.75
2023-02-14T06:12:51.725Z,98654.41
2023-02-14T06:15:18.804Z,98651.78
2023-02-14T06:17:45.521Z,98651.56
2023-02-14T06:20:12.198Z,98650.78
2023-02-14T06:22:39.249Z,98654.09
2023-02-14T06:25:06.554Z,98646.63
2023-02-14T06:27:33.492Z,98655.09
2023-02-14T06:30:00.140Z,98647.06
2023-02-14T06:32:26.801Z,98655.84
2023-02-14T06:34:53.190Z,98653.00
2023-02-14T06:37:20.084Z,98656.50
2023-02-14T06:39:46.507Z,98658.25
2023-02-14T06:42:12.950Z,98656.19
2023-02-14T06:44:39.315Z,98660.25
2023-02-14T06:47:05.920Z,98661.66
2023-02-14T06:49:32.277Z,98660.91
2023-02-14T06:51:58.650Z,98649.81
2023-02-14T06:54:25.019Z,98651.38
2023-02-14T06:56:51.446Z,98661.47
2023-02-14T06:59:18.016Z,98649.81
2023-02-14T07:01:44.475Z,98648.63
2023-02-14T07:04:10.951Z,98646.75
2023-02-14T07:06:37.587Z,98655.22
2023-02-14T07:09:04.766Z,98656.75
2023-02-14T07:11:31.570Z,98648.16
2023-02-14T07:13:57.965Z,98647.53
2023-02-14T07:16:24.399Z,98632.06
2023-02-14T07:18:50.828Z,98634.91
2023-02-14T07:21:17.172Z,98637.56
2023-02-14T07:23:46.303Z,98639.28
2023-02-14T07:26:17.836Z,98635.09
2023-02-14T07:28:49.132Z,98634.03
2023-02-14T07:31:16.233Z,98628.84
2023-02-14T07:33:42.804Z,98621.28
2023-02-14T07:36:09.726Z,98624.03
2023-02-14T07:38:36.858Z,98623.28
2023-02-14T07:41:03.862Z,98623.28
2023-02-14T07:43:30.413Z,98620.53
2023-02-14T07:45:56.825Z,98625.38
2023-02-14T07:48:23.339Z,98619.53
2023-02-14T07:50:49.795Z,98623.16
2023-02-14T07:53:16.140Z,98618.22
2023-02-14T07:55:42.546Z,98624.25
2023-02-14T07:58:09.092Z,98616.25
2023-02-14T08:00:35.455Z,98621.59
2023-02-14T08:03:01.855Z,98623.59
2023-02-14T08:05:28.362Z,98623.47
2023-02-14T08:07:54.798Z,98611.94
2023-02-14T08:10:21.217Z,98622.91
2023-02-14T08:12:59.970Z,98624.47
2023-02-14T08:15:46.506Z,98621.94
2023-02-14T08:18:13.520Z,98626.56
2023-02-14T08:20:40.063Z,98628.53
2023-02-14T08:23:06.489Z,98628.09
2023-02-14T08:25:32.875Z,98616.25
2023-02-14T08:28:01.829Z,98624.81
2023-02-14T08:30:28.450Z,98633.38
2023-02-14T08:32:54.960Z,98634.34
2023-02-14T08:35:21.417Z,98626.25
2023-02-14T08:37:47.903Z,98626.34
2023-02-14T08:40:14.440Z,98622.28
2023-02-14T08:42:41.839Z,98619.44
2023-02-14T08:45:08.730Z,98620.84
2023-02-14T08:47:35.846Z,98616.34
2023-02-14T08:50:03.599Z,98616.66
2023-02-14T08:52:29.949Z,98614.81
2023-02-14T08:54:56.622Z,98621.38
2023-02-14T08:57:23.073Z,98616.91
2023-02-14T08:59:49.548Z,98622.03
2023-02-14T09:02:18.903Z,98619.09
2023-02-14T09:04:45.957Z,98607.69
2023-02-14T09:07:12.963Z,98617.56
2023-02-14T09:09:39.393Z,98622.91
2023-02-14T09:12:07.289Z,98624.38
2023-02-14T09:14:38.431Z,98613.50
2023-02-14T09:17:05.862Z,98621.06
2023-02-14T09:19:33.742Z,98621.84
2023-02-14T09:22:00.602Z,98622.72
2023-02-14T09:24:27.660Z,98617.78
2023-02-14T09:26:54.304Z,98617.97
2023-02-14T09:29:21.830Z,98612.16
2023-02-14T09:31:48.493Z,98621.69
2023-02-14T09:34:33.491Z,98620.81
2023-02-14T09:37:18.317Z,98633.13
2023-02-14T09:39:44.800Z,98622.13
2023-02-14T09:42:43.267Z,98624.47
2023-02-14T09:45:17.136Z,98626.09
2023-02-14T09:47:50.447Z,98626.75
2023-02-14T09:50:40.217Z,98619.63
2023-02-14T09:53:15.545Z,98624.78
2023-02-14T09:56:17.084Z,98623.00
2023-02-14T09:59:09.270Z,98620.91
2023-02-14T10:01:41.581Z,98615.09
2023-02-14T10:04:29.535Z,98622.69
2023-02-14T10:07:25.629Z,98619.84
2023-02-14T10:10:05.690Z,98616.63
2023-02-14T10:12:41.648Z,98625.53
2023-02-14T10:15:15.976Z,98620.16
2023-02-14T10:17:52.986Z,98612.56
2023-02-14T10:20:32.176Z,98620.47
2023-02-14T10:23:24.833Z,98609.06
2023-02-14T10:26:04.255Z,98614.41
2023-02-14T10:28:40.062Z,98608.38
2023-02-14T10:31:27.374Z,98605.84
2023-02-14T10:34:08.301Z,98605.16
2023-02-14T10:36:59.789Z,98602.75
2023-02-14T10:39:33.213Z,98600.53
2023-02-14T10:42:32.816Z,98600.66
2023-02-14T10:45:09.304Z,98603.06
2023-02-14T10:47:39.767Z,98609.66
2023-02-14T10:50:21.081Z,98601.06
2023-02-14T10:52:53.273Z,98591.19
2023-02-14T10:55:46.687Z,98595.03
2023-02-14T10:58:17.688Z,98590.63
2023-02-14T11:00:49.788Z,98584.81
2023-02-14T11:03:16.564Z,98593.38
2023-02-14T11:05:46.747Z,98591.84
2023-02-14T11:08:16.149Z,98592.50
2023-02-14T11:10:42.600Z,98590.84
2023-02-14T11:13:31.400Z,98589.72
2023-02-14T11:16:10.326Z,98582.81
2023-02-14T11:18:39.834Z,98582.22
2023-02-14T11:21:14.852Z,98592.91
2023-02-14T11:23:48.247Z,98584.75
2023-02-14T11:26:22.423Z,98575.53
2023-02-14T11:28:53.950Z,98578.28
2023-02-14T11:31:28.118Z,98575.16
2023-02-14T11:33:54.877Z,98572.53
2023-02-14T11:36:21.784Z,98566.28
2023-02-14T11:38:56.971Z,98566.72
2023-02-14T11:41:25.133Z,98551.25
2023-02-14T11:43:52.399Z,98557.19
2023-02-14T11:46:22.746Z,98555.84
2023-02-14T11:49:04.902Z,98543.78
2023-02-14T11:51:37.615Z,98542.50
2023-02-14T11:54:05.969Z,98543.69
2023-02-14T11:56:53.804Z,98539.13
2023-02-14T11:59:28.557Z,98530.03
2023-02-14T12:01:57.844Z,98531.19
2023-02-14T12:04:38.093Z,98530.72
2023-02-14T12:07:18.295Z,98530.50
2023-02-14T12:09:47.044Z,98516.53
2023-02-14T12:12:23.352Z,98520.19
2023-02-14T12:14:49.822Z,98517.44
2023-02-14T12:17:31.109Z,98513.19
2023-02-14T12:20:14.056Z,98512.50
2023-02-14T12:22:49.712Z,98512.00
2023-02-14T12:25:22.711Z,98512.72
2023-02-14T12:27:53.752Z,98508.34
2023-02-14T12:30:22.984Z,98494.53
2023-02-14T12:32:56.317Z,98494.38
2023-02-14T12:35:59.694Z,98490.22
2023-02-14T12:38:49.471Z,98491.28
2023-02-14T12:41:30.938Z,98494.50
2023-02-14T12:44:05.210Z,98494.69
2023-02-14T12:46:44.480Z,98479.53
2023-02-14T12:49:35.589Z,98487.81
2023-02-14T12:52:29.259Z,98478.94
2023-02-14T12:55:15.134Z,98475.44
2023-02-14T12:58:24.632Z,98476.19
2023-02-14T13:01:38.738Z,98472.06
2023-02-14T13:04:40.893Z,98477.41
2023-02-14T13:07:39.646Z,98474.38
2023-02-14T13:10:19.673Z,98476.03
2023-02-14T13:12:59.707Z,98478.66
2023-02-14T13:15:58.425Z,98475.13
2023-02-14T13:18:47.499Z,98471.09
2023-02-14T13:21:17.614Z,98462.16
2023-02-14T13:23:47.725Z,98455.63
2023-02-14T13:26:31.810Z,98464.19
2023-02-14T13:29:10.319Z,98463.88
2023-02-14T13:31:38.422Z,98459.91
2023-02-14T13:34:29.427Z,98458.16
2023-02-14T13:36:58.221Z,98453.59
2023-02-14T13:39:50.440Z,98450.56
2023-02-14T13:42:50.790Z,98443.19
2023-02-14T13:45:29.302Z,98447.75
2023-02-14T13:48:16.975Z,98449.50
2023-02-14T13:51:01.143Z,98451.25
2023-02-14T13:53:36.928Z,98449.88
2023-02-14T13:56:28.970Z,98445.00
2023-02-14T13:59:06.871Z,98446.16
2023-02-14T14:01:35.681Z,98441.91
2023-02-14T14:04:28.010Z,98445.22
2023-02-14T14:07:03.570Z,98448.25
2023-02-14T14:09:42.440Z,98450.00
2023-02-14T14:12:26.979Z,98446.47
2023-02-14T14:15:05.621Z,98437.16
2023-02-14T14:17:34.917Z,98438.84
2023-02-14T14:20:04.289Z,98442.06
2023-02-14T14:22:30.897Z,98424.78
2023-02-14T14:25:00.897Z,98429.53
2023-02-14T14:27:40.839Z,98424.66
2023-02-14T14:30:29.226Z,98428.84
2023-02-14T14:32:55.532Z,98427.84
2023-02-14T14:35:24.791Z,98430.78
2023-02-14T14:37:54.716Z,98418.75
2023-02-14T14:40:29.527Z,98413.88
2023-02-14T14:43:02.055Z,98412.50
2023-02-14T14:45:31.301Z,98411.84
2023-02-14T14:48:02.926Z,98419.31
2023-02-14T14:50:32.775Z,98407.16
2023-02-14T14:53:03.537Z,98412.41
2023-02-14T14:55:32.197Z,98401.94
2023-02-14T14:58:04.853Z,98406.78
2023-02-14T15:00:34.389Z,98406.84
2023-02-14T15:03:14.778Z,98398.56
2023-02-14T15:05:50.431Z,98401.78
2023-02-14T15:08:31.945Z,98395.78
2023-02-14T15:11:39.779Z,98400.03
2023-02-14T15:14:17.733Z,98393.34
2023-02-14T15:16:53.979Z,98398.38
2023-02-14T15:19:33.466Z,98395.09
2023-02-14T15:22:02.670Z,98386.34
2023-02-14T15:24:31.430Z,98396.44
2023-02-14T15:26:58.245Z,98395.09
2023-02-14T15:29:32.557Z,98403.22
2023-02-14T15:32:03.120Z,98393.03
2023-02-14T15:34:38.116Z,98393.28
2023-02-14T15:37:06.558Z,98393.47
2023-02-14T15:39:37.785Z,98397.19
2023-02-14T15:42:05.920Z,98392.44
2023-02-14T15:44:33.515Z,98397.97
2023-02-14T15:47:03.897Z,98394.56
2023-02-14T15:49:37.181Z,98386.47
2023-02-14T15:52:05.875Z,98396.88
2023-02-14T15:54:35.131Z,98393.16
2023-02-14T15:57:02.251Z,98385.59
2023-02-14T15:59:34.547Z,98387.72
2023-02-14T16:02:37.665Z,98386.84
2023-02-14T16:05:17.320Z,98383.94
2023-02-14T16:08:34.912Z,98388.81
2023-02-14T16:11:14.348Z,98392.31
2023-02-14T16:13:43.843Z,98378.09
2023-02-14T16:16:11.999Z,98386.78
2023-02-14T16:18:44.119Z,98386.78
2023-02-14T16:21:21.557Z,98385.41
2023-02-14T16:24:08.004Z,98394.34
2023-02-14T16:26:38.012Z,98395.91
2023-02-14T16:29:06.093Z,98400.13
2023-02-14T16:31:33.632Z,98394.22
2023-02-14T16:34:00.400Z,98398.25
2023-02-14T16:36:29.517Z,98391.69
2023-02-14T16:38:56.225Z,98399.81
2023-02-14T16:41:27.597Z,98404.06
2023-02-14T16:43:54.556Z,98402.53
2023-02-14T16:46:23.355Z,98410.22
2023-02-14T16:48:52.256Z,98408.34
2023-02-14T16:51:21.680Z,98410.75
2023-02-14T16:53:49.245Z,98406.69
2023-02-14T16:56:44.525Z,98410.84
2023-02-14T16:59:10.885Z,98421.66
2023-02-14T17:01:37.732Z,98405.06
2023-02-14T17:04:04.701Z,98411.31
2023-02-14T17:06:33.567Z,98417.56
2023-02-14T17:09:04.679Z,98416.69
2023-02-14T17:11:31.981Z,98419.78
2023-02-14T17:13:58.476Z,98418.78
2023-02-14T17:16:24.911Z,98418.25
2023-02-14T17:18:51.987Z,98416.38
2023-02-14T17:21:22.200Z,98419.16
2023-02-14T17:23:48.613Z,98416.63
2023-02-14T17:26:16.349Z,98409.81
2023-02-14T17:28:42.751Z,98418.84
2023-02-14T17:31:09.767Z,98414.44
2023-02-14T17:33:36.856Z,98415.44
2023-02-14T17:36:12.187Z,98419.66
2023-02-14T17:38:39.936Z,98419.78
2023-02-14T17:41:18.459Z,98429.56
2023-02-14T17:43:45.668Z,98423.44
2023-02-14T17:46:14.261Z,98428.34
2023-02-14T17:48:41.187Z,98435.25
2023-02-14T17:51:09.467Z,98431.00
2023-02-14T17:53:35.900Z,98432.53
2023-02-14T17:56:07.234Z,98432.53
2023-02-14T17:58:33.509Z,98431.75
2023-02-14T18:01:09.555Z,98423.88
2023-02-14T18:03:36.138Z,98425.53
2023-02-14T18:06:03.407Z,98425.41
2023-02-14T18:08:32.914Z,98423.75
2023-02-14T18:11:00.354Z,98426.28
2023-02-14T18:13:26.907Z,98417.19
2023-02-14T18:15:53.412Z,98412.25
2023-02-14T18:18:20.314Z,98405.56
2023-02-14T18:20:54.210Z,98414.13
2023-02-14T18:23:21.291Z,98408.31
2023-02-14T18:25:56.154Z,98399.94
2023-02-14T18:28:24.143Z,98401.72
2023-02-14T18:30:50.925Z,98410.28
2023-02-14T18:33:17.818Z,98399.94
2023-02-14T18:35:45.281Z,98401.50
2023-02-14T18:38:12.521Z,98399.56
2023-02-14T18:40:39.599Z,98397.03
2023-02-14T18:43:06.084Z,98400.00
2023-02-14T18:45:39.020Z,98403.94
2023-02-14T18:48:06.182Z,98403.94
2023-02-14T18:50:35.040Z,98396.25
2023-02-14T18:53:01.484Z,98396.03
2023-02-14T18:55:28.844Z,98402.97
2023-02-14T18:57:55.248Z,98406.31
2023-02-14T19:00:22.135Z,98395.50
2023-02-14T19:02:48.618Z,98399.13
2023-02-14T19:05:15.016Z,98390.25
2023-02-14T19:07:41.506Z,98389.94
2023-02-14T19:10:08.795Z,98389.81
2023-02-14T19:12:35.231Z,98391.56
2023-02-14T19:15:02.165Z,98391.00
2023-02-14T19:17:28.909Z,98388.16
2023-02-14T19:19:55.670Z,98394.97
2023-02-14T19:22:22.631Z,98394.28
2023-02-14T19:24:52.259Z,98391.88
2023-02-14T19:27:18.966Z,98393.22
2023-02-14T19:29:45.393Z,98392.53
2023-02-14T19:32:11.974Z,98388.50
2023-02-14T19:34:38.995Z,98379.84
2023-02-14T19:37:06.406Z,98382.13
2023-02-14T19:39:32.974Z,98386.84
2023-02-14T19:42:00.102Z,98377.09
2023-02-14T19:44:28.731Z,98370.28
2023-02-14T19:46:56.420Z,98366.56
2023-02-14T19:49:22.872Z,98374.38
2023-02-14T19:51:51.150Z,98375.25
2023-02-14T19:54:18.849Z,98359.69
2023-02-14T19:56:46.890Z,98368.31
2023-02-14T19:59:19.762Z,98369.44
2023-02-14T20:01:50.085Z,98375.44
2023-02-14T20:04:26.065Z,98376.88
2023-02-14T20:06:53.835Z,98384.00
2023-02-14T20:09:24.657Z,98385.41
2023-02-14T20:11:56.723Z,98384.75
2023-02-14T20:14:49.911Z,98383.75
2023-02-14T20:17:18.133Z,98372.28
2023-02-14T20:19:45.051Z,98374.03
2023-02-14T20:22:11.549Z,98379.06
2023-02-14T20:24:37.972Z,98370.31
2023-02-14T20:27:04.519Z,98380.38
2023-02-14T20:29:33.097Z,98362.75
2023-02-14T20:32:01.314Z,98358.38
2023-02-14T20:34:27.988Z,98363.59
2023-02-14T20:36:55.698Z,98361.22
2023-02-14T20:39:27.493Z,98363.22
2023-02-14T20:41:54.135Z,98354.41
2023-02-14T20:44:21.738Z,98363.41
2023-02-14T20:46:51.380Z,98359.38
2023-02-14T20:49:19.047Z,98351.81
2023-02-14T20:51:46.606Z,98344.03
2023-02-14T20:54:16.642Z,98346.66
2023-02-14T20:56:43.001Z,98339.22
2023-02-14T20:59:11.515Z,98335.28
2023-02-14T21:01:38.251Z,98331.00
2023-02-14T21:04:05.862Z,98351.25
2023-02-14T21:06:34.268Z,98331.00
2023-02-14T21:09:01.201Z,98343.72
2023-02-14T21:11:28.068Z,98340.09
2023-02-14T21:14:00.132Z,98337.56
2023-02-14T21:16:28.750Z,98328.81
2023-02-14T21:18:58.999Z,98332.19
2023-02-14T21:21:33.916Z,98326.63
2023-02-14T21:24:11.458Z,98317.44
2023-02-14T21:26:39.068Z,98325.44
2023-02-14T21:29:05.872Z,98319.97
2023-02-14T21:31:32.995Z,98319.06
2023-02-14T21:34:00.680Z,98326.63
2023-02-14T21:36:30.002Z,98323.44
2023-02-14T21:38:58.314Z,98318.63
2023-02-14T21:41:30.163Z,98318.41
2023-02-14T21:43:58.431Z,98315.44
2023-02-14T21:46:29.363Z,98319.06
2023-02-14T21:49:18.840Z,98306.94
2023-02-14T21:51:46.359Z,98317.31
2023-02-14T21:54:12.946Z,98307.44
2023-02-14T21:56:41.288Z,98302.22
2023-02-14T21:59:08.968Z,98305.81
2023-02-14T22:01:37.213Z,98306.69
2023-02-14T22:04:09.732Z,98301.66
2023-02-14T22:06:38.231Z,98303.19
2023-02-14T22:09:05.452Z,98301.56
2023-02-14T22:11:32.148Z,98292.91
2023-02-14T22:13:59.635Z,98287.44
2023-02-14T22:16:26.249Z,98294.22
2023-02-14T22:18:52.715Z,98291.72
2023-02-14T22:21:21.914Z,98288.97
2023-02-14T22:23:48.410Z,98287.22
2023-02-14T22:26:25.592Z,98289.94
2023-02-14T22:28:56.723Z,98281.44
2023-02-14T22:31:25.659Z,98287.75
2023-02-14T22:33:52.684Z,98288.56
2023-02-14T22:36:19.978Z,98299.91
2023-02-14T22:38:46.430Z,98290.81
2023-02-14T22:41:15.998Z,98284.72
2023-02-14T22:43:43.745Z,98290.38
2023-02-14T22:46:14.281Z,98290.25
2023-02-14T22:48:41.389Z,98288.75
2023-02-14T22:51:17.850Z,98284.38
2023-02-14T22:53:44.310Z,98291.13
2023-02-14T22:56:11.809Z,98282.63
2023-02-14T22:58:39.103Z,98278.34
2023-02-14T23:01:05.938Z,98280.88
2023-02-14T23:03:33.541Z,98275.59
2023-02-14T23:06:00.580Z,98287.00
2023-02-14T23:08:27.178Z,98274.84
2023-02-14T23:10:53.858Z,98276.84
2023-02-14T23:13:39.022Z,98272.00
2023-02-14T23:16:23.786Z,98266.66
2023-02-14T23:19:08.644Z,98265.78
2023-02-14T23:21:53.342Z,98259.41
2023-02-14T23:24:20.048Z,98256.91
2023-02-14T23:26:46.431Z,98261.94
2023-02-14T23:29:12.900Z,98258.84
2023-02-14T23:31:39.340Z,98260.41
2023-02-14T23:34:05.922Z,98269.72
2023-02-14T23:36:32.330Z,98267.06
2023-02-14T23:38:58.681Z,98266.63
2023-02-14T23:41:43.357Z,98259.38
2023-02-14T23:44:09.794Z,98265.69
2023-02-14T23:46:37.287Z,98265.59
2023-02-14T23:49:03.738Z,98256.66
2023-02-14T23:51:30.134Z,98258.84
2023-02-14T23:53:56.551Z,98250.63
2023-02-14T23:56:22.972Z,98247.03
2023-02-14T23:58:49.348Z,98249.09
